sensor_id;sensor_type;location;lat;lon;timestamp;pressure;altitude;pressure_sealevel;temperature;humidity
7075;BME280;3578;51.568;6.932;2023-02-11T00:02:09;50777.91;;;-144.14;100.00
7075;BME280;3578;51.568;6.932;2023-02-11T00:04:36;50775.91;;;-144.14;100.00
7075;BME280;3578;51.568;6.932;2023-02-11T00:07:03;50805.97;;;-144.14;100.00
7075;BME280;3578;51.568;6.932;2023-02-11T00:09:30;50787.94;;;-144.14;100.00
7075;BME280;3578;51.568;6.932;2023-02-11T00:11:57;50840.00;;;-144.14;100.00
7075;BME280;3578;51.568;6.932;2023-02-11T00:14:24;50795.94;;;-144.14;100.00
7075;BME280;3578;51.568;6.932;2023-02-11T00:16:51;50801.97;;;-144.14;100.00
7075;BME280;3578;51.568;6.932;2023-02-11T00:19:20;50777.91;;;-144.14;100.00
7075;BME280;3578;51.568;6.932;2023-02-11T00:21:47;50815.97;;;-144.14;100.00
7075;BME280;3578;51.568;6.932;2023-02-11T00:24:14;50910.09;;;-144.14;100.00
7075;BME280;3578;51.568;6.932;2023-02-11T00:26:42;50844.00;;;-144.14;100.00
7075;BME280;3578;51.568;6.932;2023-02-11T00:29:09;50890.06;;;-144.14;100.00
7075;BME280;3578;51.568;6.932;2023-02-11T00:31:36;50954.16;;;-144.14;100.00
7075;BME280;3578;51.568;6.932;2023-02-11T00:34:03;50954.16;;;-144.14;100.00
7075;BME280;3578;51.568;6.932;2023-02-11T00:36:32;50938.13;;;-144.14;100.00
7075;BME280;3578;51.568;6.932;2023-02-11T00:38:59;50936.13;;;-144.14;100.00
7075;BME280;3578;51.568;6.932;2023-02-11T00:41:26;50976.19;;;-144.14;100.00
7075;BME280;3578;51.568;6.932;2023-02-11T00:43:53;50978.19;;;-144.14;100.00
7075;BME280;3578;51.568;6.932;2023-02-11T00:46:21;51024.25;;;-144.14;100.00
7075;BME280;3578;51.568;6.932;2023-02-11T00:48:49;50982.19;;;-144.14;100.00
7075;BME280;3578;51.568;6.932;2023-02-11T00:51:19;50918.09;;;-144.14;100.00
7075;BME280;3578;51.568;6.932;2023-02-11T00:53:48;50994.22;;;-144.14;100.00
7075;BME280;3578;51.568;6.932;2023-02-11T00:56:15;50982.19;;;-144.14;100.00
7075;BME280;3578;51.568;6.932;2023-02-11T00:58:42;51010.25;;;-144.14;100.00
7075;BME280;3578;51.568;6.932;2023-02-11T01:01:09;50980.19;;;-144.14;100.00
7075;BME280;3578;51.568;6.932;2023-02-11T01:03:37;50938.13;;;-144.14;100.00
7075;BME280;3578;51.568;6.932;2023-02-11T01:06:06;51020.25;;;-144.14;100.00
7075;BME280;3578;51.568;6.932;2023-02-11T01:08:33;51004.22;;;-144.14;100.00
7075;BME280;3578;51.568;6.932;2023-02-11T01:11:05;50992.22;;;-144.14;100.00
7075;BME280;3578;51.568;6.932;2023-02-11T01:13:35;51038.28;;;-144.14;100.00
7075;BME280;3578;51.568;6.932;2023-02-11T01:16:05;51034.28;;;-144.14;100.00
7075;BME280;3578;51.568;6.932;2023-02-11T01:18:33;51038.28;;;-144.14;100.00
7075;BME280;3578;51.568;6.932;2023-02-11T01:21:00;51010.25;;;-144.14;100.00
7075;BME280;3578;51.568;6.932;2023-02-11T01:23:27;51038.28;;;-144.14;100.00
7075;BME280;3578;51.568;6.932;2023-02-11T01:25:54;51002.22;;;-144.14;100.00
7075;BME280;3578;51.568;6.932;2023-02-11T01:28:25;51022.25;;;-144.14;100.00
7075;BME280;3578;51.568;6.932;2023-02-11T01:30:53;51022.25;;;-144.14;100.00
7075;BME280;3578;51.568;6.932;2023-02-11T01:33:21;51054.28;;;-144.14;100.00
7075;BME280;3578;51.568;6.932;2023-02-11T01:35:48;51034.28;;;-144.14;100.00
7075;BME280;3578;51.568;6.932;2023-02-11T01:38:18;51016.25;;;-144.14;100.00
7075;BME280;3578;51.568;6.932;2023-02-11T01:40:47;51010.25;;;-144.14;100.00
7075;BME280;3578;51.568;6.932;2023-02-11T01:43:15;51058.31;;;-144.14;99.95
7075;BME280;3578;51.568;6.932;2023-02-11T01:46:11;51042.28;;;-144.14;99.86
7075;BME280;3578;51.568;6.932;2023-02-11T01:48:42;51096.34;;;-144.14;99.71
7075;BME280;3578;51.568;6.932;2023-02-11T01:51:15;51046.28;;;-144.14;100.00
7075;BME280;3578;51.568;6.932;2023-02-11T01:53:44;51014.25;;;-144.14;100.00
7075;BME280;3578;51.568;6.932;2023-02-11T01:56:30;51058.31;;;-144.14;99.92
7075;BME280;3578;51.568;6.932;2023-02-11T01:59:19;51022.25;;;-144.14;99.93
7075;BME280;3578;51.568;6.932;2023-02-11T02:01:55;51074.31;;;-144.14;100.00
7075;BME280;3578;51.568;6.932;2023-02-11T02:04:26;51074.31;;;-144.14;99.72
7075;BME280;3578;51.568;6.932;2023-02-11T02:07:01;51138.41;;;-144.14;99.61
7075;BME280;3578;51.568;6.932;2023-02-11T02:09:35;51098.34;;;-144.14;99.68
7075;BME280;3578;51.568;6.932;2023-02-11T02:12:03;51102.38;;;-144.14;99.79
7075;BME280;3578;51.568;6.932;2023-02-11T02:14:30;51112.38;;;-144.14;99.61
7075;BME280;3578;51.568;6.932;2023-02-11T02:16:59;51152.44;;;-144.14;99.41
7075;BME280;3578;51.568;6.932;2023-02-11T02:23:27;51156.44;;;-144.14;99.47
7075;BME280;3578;51.568;6.932;2023-02-11T02:26:35;51158.44;;;-144.14;99.42
7075;BME280;3578;51.568;6.932;2023-02-11T02:29:35;51094.34;;;-144.14;99.76
7075;BME280;3578;51.568;6.932;2023-02-11T02:32:29;51108.38;;;-144.14;99.63
7075;BME280;3578;51.568;6.932;2023-02-11T02:35:07;51114.38;;;-144.14;99.50
7075;BME280;3578;51.568;6.932;2023-02-11T02:37:40;51126.41;;;-144.14;99.66
7075;BME280;3578;51.568;6.932;2023-02-11T02:40:14;51086.34;;;-144.14;99.67
7075;BME280;3578;51.568;6.932;2023-02-11T02:42:43;51068.31;;;-144.14;99.96
7075;BME280;3578;51.568;6.932;2023-02-11T02:45:11;51054.28;;;-144.14;100.00
7075;BME280;3578;51.568;6.932;2023-02-11T02:47:40;51082.34;;;-144.14;99.85
7075;BME280;3578;51.568;6.932;2023-02-11T02:50:09;51072.31;;;-144.14;99.96
7075;BME280;3578;51.568;6.932;2023-02-11T02:52:44;51088.34;;;-144.14;99.79
7075;BME280;3578;51.568;6.932;2023-02-11T02:55:30;51082.34;;;-144.14;99.95
7075;BME280;3578;51.568;6.932;2023-02-11T02:58:51;51098.34;;;-144.14;99.79
7075;BME280;3578;51.568;6.932;2023-02-11T03:01:32;50980.19;;;-144.14;99.99
7075;BME280;3578;51.568;6.932;2023-02-11T03:04:10;51016.25;;;-144.14;100.00
7075;BME280;3578;51.568;6.932;2023-02-11T03:06:47;51014.25;;;-144.14;100.00
7075;BME280;3578;51.568;6.932;2023-02-11T03:09:23;50972.19;;;-144.14;100.00
7075;BME280;3578;51.568;6.932;2023-02-11T03:11:53;50998.22;;;-144.14;100.00
7075;BME280;3578;51.568;6.932;2023-02-11T03:14:22;50962.16;;;-144.14;100.00
7075;BME280;3578;51.568;6.932;2023-02-11T03:16:54;50950.16;;;-144.14;100.00
7075;BME280;3578;51.568;6.932;2023-02-11T03:19:27;50902.09;;;-144.14;100.00
7075;BME280;3578;51.568;6.932;2023-02-11T03:21:55;50924.13;;;-144.14;100.00
7075;BME280;3578;51.568;6.932;2023-02-11T03:24:28;50884.06;;;-144.14;100.00
7075;BME280;3578;51.568;6.932;2023-02-11T03:27:00;50908.09;;;-144.14;100.00
7075;BME280;3578;51.568;6.932;2023-02-11T03:29:35;50868.03;;;-144.14;100.00
7075;BME280;3578;51.568;6.932;2023-02-11T03:32:10;50904.09;;;-144.14;100.00
7075;BME280;3578;51.568;6.932;2023-02-11T03:34:46;50817.97;;;-144.14;100.00
7075;BME280;3578;51.568;6.932;2023-02-11T03:37:20;50842.00;;;-144.14;100.00
7075;BME280;3578;51.568;6.932;2023-02-11T03:39:51;50846.00;;;-144.14;100.00
7075;BME280;3578;51.568;6.932;2023-02-11T03:42:22;50807.97;;;-144.14;100.00
7075;BME280;3578;51.568;6.932;2023-02-11T03:44:56;50757.91;;;-144.14;100.00
7075;BME280;3578;51.568;6.932;2023-02-11T03:47:27;50675.78;;;-144.14;100.00
7075;BME280;3578;51.568;6.932;2023-02-11T03:49:58;50605.69;;;-144.14;100.00
7075;BME280;3578;51.568;6.932;2023-02-11T03:52:29;50463.53;;;-144.14;100.00
7075;BME280;3578;51.568;6.932;2023-02-11T03:54:59;50323.34;;;-144.14;100.00
7075;BME280;3578;51.568;6.932;2023-02-11T03:57:28;50317.34;;;-144.14;100.00
7075;BME280;3578;51.568;6.932;2023-02-11T03:59:57;50305.34;;;-144.14;100.00
7075;BME280;3578;51.568;6.932;2023-02-11T04:02:28;50289.31;;;-144.14;100.00
7075;BME280;3578;51.568;6.932;2023-02-11T04:04:57;50121.13;;;-144.14;100.00
7075;BME280;3578;51.568;6.932;2023-02-11T04:07:25;50077.06;;;-144.14;100.00
7075;BME280;3578;51.568;6.932;2023-02-11T04:09:53;50145.16;;;-144.14;100.00
7075;BME280;3578;51.568;6.932;2023-02-11T04:12:20;50131.13;;;-144.14;100.00
7075;BME280;3578;51.568;6.932;2023-02-11T04:14:47;50159.16;;;-144.14;100.00
7075;BME280;3578;51.568;6.932;2023-02-11T04:17:14;50089.09;;;-144.14;100.00
7075;BME280;3578;51.568;6.932;2023-02-11T04:19:42;50171.19;;;-144.14;100.00
7075;BME280;3578;51.568;6.932;2023-02-11T04:22:10;50159.16;;;-144.14;100.00
7075;BME280;3578;51.568;6.932;2023-02-11T04:24:37;50153.16;;;-144.14;100.00
7075;BME280;3578;51.568;6.932;2023-02-11T04:27:04;50017.00;;;-144.14;100.00
7075;BME280;3578;51.568;6.932;2023-02-11T04:29:31;49974.97;;;-144.14;100.00
7075;BME280;3578;51.568;6.932;2023-02-11T04:31:58;49920.91;;;-144.14;100.00
7075;BME280;3578;51.568;6.932;2023-02-11T04:34:26;49942.94;;;-144.14;100.00
7075;BME280;3578;51.568;6.932;2023-02-11T04:36:53;49884.88;;;-144.14;100.00
7075;BME280;3578;51.568;6.932;2023-02-11T04:39:21;49886.88;;;-144.14;100.00
7075;BME280;3578;51.568;6.932;2023-02-11T04:41:48;49808.78;;;-144.14;100.00
7075;BME280;3578;51.568;6.932;2023-02-11T04:44:15;49816.78;;;-144.14;100.00
7075;BME280;3578;51.568;6.932;2023-02-11T04:46:42;49768.75;;;-144.14;100.00
7075;BME280;3578;51.568;6.932;2023-02-11T04:49:10;49864.84;;;-144.14;100.00
7075;BME280;3578;51.568;6.932;2023-02-11T04:51:38;49902.88;;;-144.14;100.00
7075;BME280;3578;51.568;6.932;2023-02-11T04:54:05;49896.88;;;-144.14;100.00
7075;BME280;3578;51.568;6.932;2023-02-11T04:56:34;49864.84;;;-144.14;100.00
7075;BME280;3578;51.568;6.932;2023-02-11T04:59:01;49886.88;;;-144.14;100.00
7075;BME280;3578;51.568;6.932;2023-02-11T05:01:28;49884.88;;;-144.14;100.00
7075;BME280;3578;51.568;6.932;2023-02-11T05:03:55;49820.81;;;-144.14;100.00
7075;BME280;3578;51.568;6.932;2023-02-11T05:06:22;49876.84;;;-144.14;100.00
7075;BME280;3578;51.568;6.932;2023-02-11T05:08:49;49868.84;;;-144.14;100.00
7075;BME280;3578;51.568;6.932;2023-02-11T05:11:20;49954.94;;;-144.14;100.00
7075;BME280;3578;51.568;6.932;2023-02-11T05:13:50;49992.97;;;-144.14;100.00
7075;BME280;3578;51.568;6.932;2023-02-11T05:16:17;49932.91;;;-144.14;100.00
7075;BME280;3578;51.568;6.932;2023-02-11T05:18:45;49968.97;;;-144.14;100.00
7075;BME280;3578;51.568;6.932;2023-02-11T05:21:15;49984.97;;;-144.14;100.00
7075;BME280;3578;51.568;6.932;2023-02-11T05:23:43;49978.97;;;-144.14;100.00
7075;BME280;3578;51.568;6.932;2023-02-11T05:26:10;49940.94;;;-144.14;100.00
7075;BME280;3578;51.568;6.932;2023-02-11T05:28:38;49936.91;;;-144.14;100.00
7075;BME280;3578;51.568;6.932;2023-02-11T05:31:06;49922.91;;;-144.14;100.00
7075;BME280;3578;51.568;6.932;2023-02-11T05:33:34;49952.94;;;-144.14;100.00
7075;BME280;3578;51.568;6.932;2023-02-11T05:36:03;49934.91;;;-144.14;100.00
7075;BME280;3578;51.568;6.932;2023-02-11T05:38:31;49944.94;;;-144.14;100.00
7075;BME280;3578;51.568;6.932;2023-02-11T05:40:58;49900.88;;;-144.14;100.00
7075;BME280;3578;51.568;6.932;2023-02-11T05:43:25;49924.91;;;-144.14;100.00
7075;BME280;3578;51.568;6.932;2023-02-11T05:45:53;49910.91;;;-144.14;100.00
7075;BME280;3578;51.568;6.932;2023-02-11T05:48:21;49900.88;;;-144.14;100.00
7075;BME280;3578;51.568;6.932;2023-02-11T05:50:48;49902.88;;;-144.14;100.00
7075;BME280;3578;51.568;6.932;2023-02-11T05:53:15;49904.88;;;-144.14;100.00
7075;BME280;3578;51.568;6.932;2023-02-11T05:55:42;49898.88;;;-144.14;100.00
7075;BME280;3578;51.568;6.932;2023-02-11T05:58:09;49890.88;;;-144.14;100.00
7075;BME280;3578;51.568;6.932;2023-02-11T06:00:36;49828.81;;;-144.14;100.00
7075;BME280;3578;51.568;6.932;2023-02-11T06:03:03;49792.78;;;-144.14;100.00
7075;BME280;3578;51.568;6.932;2023-02-11T06:05:32;49776.75;;;-144.14;100.00
7075;BME280;3578;51.568;6.932;2023-02-11T06:07:59;49776.75;;;-144.14;100.00
7075;BME280;3578;51.568;6.932;2023-02-11T06:10:26;49672.66;;;-144.14;100.00
7075;BME280;3578;51.568;6.932;2023-02-11T06:12:53;49704.69;;;-144.14;100.00
7075;BME280;3578;51.568;6.932;2023-02-11T06:15:20;49724.69;;;-144.14;100.00
7075;BME280;3578;51.568;6.932;2023-02-11T06:17:47;49732.72;;;-144.14;100.00
7075;BME280;3578;51.568;6.932;2023-02-11T06:20:14;49754.72;;;-144.14;100.00
7075;BME280;3578;51.568;6.932;2023-02-11T06:22:42;49762.75;;;-144.14;100.00
7075;BME280;3578;51.568;6.932;2023-02-11T06:25:09;49776.75;;;-144.14;100.00
7075;BME280;3578;51.568;6.932;2023-02-11T06:27:37;49764.75;;;-144.14;100.00
7075;BME280;3578;51.568;6.932;2023-02-11T06:30:05;49760.75;;;-144.14;100.00
7075;BME280;3578;51.568;6.932;2023-02-11T06:32:33;49766.75;;;-144.14;100.00
7075;BME280;3578;51.568;6.932;2023-02-11T06:35:00;49770.75;;;-144.14;100.00
7075;BME280;3578;51.568;6.932;2023-02-11T06:37:27;49752.72;;;-144.14;100.00
7075;BME280;3578;51.568;6.932;2023-02-11T06:39:56;49780.75;;;-144.14;100.00
7075;BME280;3578;51.568;6.932;2023-02-11T06:42:23;49748.72;;;-144.14;100.00
7075;BME280;3578;51.568;6.932;2023-02-11T06:44:50;49774.75;;;-144.14;100.00
7075;BME280;3578;51.568;6.932;2023-02-11T06:47:17;49744.72;;;-144.14;100.00
7075;BME280;3578;51.568;6.932;2023-02-11T06:49:45;49744.72;;;-144.14;100.00
7075;BME280;3578;51.568;6.932;2023-02-11T06:52:12;49720.69;;;-144.14;100.00
7075;BME280;3578;51.568;6.932;2023-02-11T06:54:39;49634.63;;;-144.14;100.00
7075;BME280;3578;51.568;6.932;2023-02-11T06:57:08;49608.59;;;-144.14;100.00
7075;BME280;3578;51.568;6.932;2023-02-11T06:59:34;49608.59;;;-144.14;100.00
7075;BME280;3578;51.568;6.932;2023-02-11T07:02:01;49660.63;;;-144.14;100.00
7075;BME280;3578;51.568;6.932;2023-02-11T07:04:28;49650.63;;;-144.14;100.00
7075;BME280;3578;51.568;6.932;2023-02-11T07:06:55;49610.59;;;-144.14;100.00
7075;BME280;3578;51.568;6.932;2023-02-11T07:09:22;49604.59;;;-144.14;100.00
7075;BME280;3578;51.568;6.932;2023-02-11T07:11:50;49628.59;;;-144.14;100.00
7075;BME280;3578;51.568;6.932;2023-02-11T07:14:18;49700.69;;;-144.14;100.00
7075;BME280;3578;51.568;6.932;2023-02-11T07:16:45;49708.69;;;-144.14;100.00
7075;BME280;3578;51.568;6.932;2023-02-11T07:19:12;49780.75;;;-144.14;100.00
7075;BME280;3578;51.568;6.932;2023-02-11T07:21:39;49774.75;;;-144.14;100.00
7075;BME280;3578;51.568;6.932;2023-02-11T07:24:07;49796.78;;;-144.14;100.00
7075;BME280;3578;51.568;6.932;2023-02-11T07:26:34;49660.63;;;-144.14;100.00
7075;BME280;3578;51.568;6.932;2023-02-11T07:29:01;49798.78;;;-144.14;100.00
7075;BME280;3578;51.568;6.932;2023-02-11T07:31:30;49848.84;;;-144.14;100.00
7075;BME280;3578;51.568;6.932;2023-02-11T07:34:00;49784.75;;;-144.14;100.00
7075;BME280;3578;51.568;6.932;2023-02-11T07:36:28;49762.75;;;-144.14;100.00
7075;BME280;3578;51.568;6.932;2023-02-11T07:38:56;49752.72;;;-144.14;100.00
7075;BME280;3578;51.568;6.932;2023-02-11T07:41:25;49736.72;;;-144.14;100.00
7075;BME280;3578;51.568;6.932;2023-02-11T07:43:52;49752.72;;;-144.14;100.00
7075;BME280;3578;51.568;6.932;2023-02-11T07:46:21;49828.81;;;-144.14;100.00
7075;BME280;3578;51.568;6.932;2023-02-11T07:48:51;49844.81;;;-144.14;100.00
7075;BME280;3578;51.568;6.932;2023-02-11T07:51:20;49824.81;;;-144.14;100.00
7075;BME280;3578;51.568;6.932;2023-02-11T07:53:48;49842.81;;;-144.14;100.00
7075;BME280;3578;51.568;6.932;2023-02-11T07:56:17;49850.84;;;-144.14;100.00
7075;BME280;3578;51.568;6.932;2023-02-11T07:58:44;49770.75;;;-144.14;100.00
7075;BME280;3578;51.568;6.932;2023-02-11T08:01:14;49774.75;;;-144.14;100.00
7075;BME280;3578;51.568;6.932;2023-02-11T08:03:42;49832.81;;;-144.14;100.00
7075;BME280;3578;51.568;6.932;2023-02-11T08:06:13;49830.81;;;-144.14;100.00
7075;BME280;3578;51.568;6.932;2023-02-11T08:08:41;49860.84;;;-144.14;100.00
7075;BME280;3578;51.568;6.932;2023-02-11T08:11:10;49868.84;;;-144.14;100.00
7075;BME280;3578;51.568;6.932;2023-02-11T08:13:38;49888.88;;;-144.14;100.00
7075;BME280;3578;51.568;6.932;2023-02-11T08:16:06;49916.91;;;-144.14;100.00
7075;BME280;3578;51.568;6.932;2023-02-11T08:18:34;49910.91;;;-144.14;100.00
7075;BME280;3578;51.568;6.932;2023-02-11T08:21:04;49958.94;;;-144.14;100.00
7075;BME280;3578;51.568;6.932;2023-02-11T08:23:33;49952.94;;;-144.14;100.00
7075;BME280;3578;51.568;6.932;2023-02-11T08:26:01;49944.94;;;-144.14;100.00
7075;BME280;3578;51.568;6.932;2023-02-11T08:28:28;49964.94;;;-144.14;100.00
7075;BME280;3578;51.568;6.932;2023-02-11T08:30:55;50015.00;;;-144.14;100.00
7075;BME280;3578;51.568;6.932;2023-02-11T08:33:22;49960.94;;;-144.14;100.00
7075;BME280;3578;51.568;6.932;2023-02-11T08:35:49;49992.97;;;-144.14;100.00
7075;BME280;3578;51.568;6.932;2023-02-11T08:38:16;49978.97;;;-144.14;100.00
7075;BME280;3578;51.568;6.932;2023-02-11T08:40:44;50023.00;;;-144.14;100.00
7075;BME280;3578;51.568;6.932;2023-02-11T08:43:11;50041.03;;;-144.14;100.00
7075;BME280;3578;51.568;6.932;2023-02-11T08:45:38;50027.03;;;-144.14;100.00
7075;BME280;3578;51.568;6.932;2023-02-11T08:48:05;50019.00;;;-144.14;100.00
7075;BME280;3578;51.568;6.932;2023-02-11T08:50:32;50069.06;;;-144.14;100.00
7075;BME280;3578;51.568;6.932;2023-02-11T08:53:03;50091.09;;;-144.14;100.00
7075;BME280;3578;51.568;6.932;2023-02-11T08:55:30;50095.09;;;-144.14;100.00
7075;BME280;3578;51.568;6.932;2023-02-11T08:57:59;50165.19;;;-144.14;100.00
7075;BME280;3578;51.568;6.932;2023-02-11T09:00:26;50251.28;;;-144.14;100.00
7075;BME280;3578;51.568;6.932;2023-02-11T09:02:53;50267.28;;;-144.14;100.00
7075;BME280;3578;51.568;6.932;2023-02-11T09:05:20;50377.41;;;-144.14;100.00
7075;BME280;3578;51.568;6.932;2023-02-11T09:07:47;50375.41;;;-144.14;100.00
7075;BME280;3578;51.568;6.932;2023-02-11T09:10:15;50453.50;;;-144.14;100.00
7075;BME280;3578;51.568;6.932;2023-02-11T09:12:42;50423.47;;;-144.14;100.00
7075;BME280;3578;51.568;6.932;2023-02-11T09:15:10;50357.41;;;-144.14;100.00
7075;BME280;3578;51.568;6.932;2023-02-11T09:17:37;50297.31;;;-144.14;100.00
7075;BME280;3578;51.568;6.932;2023-02-11T09:20:05;50315.34;;;-144.14;100.00
7075;BME280;3578;51.568;6.932;2023-02-11T09:22:32;50315.34;;;-144.14;100.00
7075;BME280;3578;51.568;6.932;2023-02-11T09:24:59;50265.28;;;-144.14;100.00
7075;BME280;3578;51.568;6.932;2023-02-11T09:27:27;50405.47;;;-144.14;100.00
7075;BME280;3578;51.568;6.932;2023-02-11T09:29:53;50357.41;;;-144.14;100.00
7075;BME280;3578;51.568;6.932;2023-02-11T09:32:22;50375.41;;;-144.14;100.00
7075;BME280;3578;51.568;6.932;2023-02-11T09:34:49;50407.47;;;-144.14;100.00
7075;BME280;3578;51.568;6.932;2023-02-11T09:37:16;50423.47;;;-144.14;100.00
7075;BME280;3578;51.568;6.932;2023-02-11T09:39:44;50407.47;;;-144.14;100.00
7075;BME280;3578;51.568;6.932;2023-02-11T09:42:36;50407.47;;;-144.14;100.00
7075;BME280;3578;51.568;6.932;2023-02-11T09:45:13;50467.53;;;-144.14;100.00
7075;BME280;3578;51.568;6.932;2023-02-11T09:47:53;50531.59;;;-144.14;100.00
7075;BME280;3578;51.568;6.932;2023-02-11T09:50:29;50533.63;;;-144.14;100.00
7075;BME280;3578;51.568;6.932;2023-02-11T09:53:01;50527.59;;;-144.14;100.00
7075;BME280;3578;51.568;6.932;2023-02-11T09:55:32;50549.63;;;-144.14;100.00
7075;BME280;3578;51.568;6.932;2023-02-11T09:58:06;50593.69;;;-144.14;100.00
7075;BME280;3578;51.568;6.932;2023-02-11T10:00:41;50589.69;;;-144.14;100.00
7075;BME280;3578;51.568;6.932;2023-02-11T10:03:35;50557.66;;;-144.14;100.00
7075;BME280;3578;51.568;6.932;2023-02-11T10:06:35;50625.72;;;-144.14;100.00
7075;BME280;3578;51.568;6.932;2023-02-11T10:09:27;50693.81;;;-144.14;100.00
7075;BME280;3578;51.568;6.932;2023-02-11T10:12:12;50815.97;;;-144.14;100.00
7075;BME280;3578;51.568;6.932;2023-02-11T10:15:14;50803.97;;;-144.14;100.00
7075;BME280;3578;51.568;6.932;2023-02-11T10:17:58;50737.88;;;-144.14;100.00
7075;BME280;3578;51.568;6.932;2023-02-11T10:20:34;50773.91;;;-144.14;100.00
7075;BME280;3578;51.568;6.932;2023-02-11T10:23:09;50773.91;;;-144.14;100.00
7075;BME280;3578;51.568;6.932;2023-02-11T10:25:42;50805.97;;;-144.14;100.00
7075;BME280;3578;51.568;6.932;2023-02-11T10:28:14;50948.16;;;-144.14;100.00
7075;BME280;3578;51.568;6.932;2023-02-11T10:30:45;50914.09;;;-144.14;100.00
7075;BME280;3578;51.568;6.932;2023-02-11T10:33:23;51032.28;;;-144.14;100.00
7075;BME280;3578;51.568;6.932;2023-02-11T10:35:52;51104.38;;;-144.14;99.83
7075;BME280;3578;51.568;6.932;2023-02-11T10:38:19;51144.44;;;-144.14;99.90
7075;BME280;3578;51.568;6.932;2023-02-11T10:40:46;51140.41;;;-144.14;99.94
7075;BME280;3578;51.568;6.932;2023-02-11T10:43:16;51068.31;;;-144.14;100.00
7075;BME280;3578;51.568;6.932;2023-02-11T10:45:48;51066.31;;;-144.14;100.00
7075;BME280;3578;51.568;6.932;2023-02-11T10:48:44;51078.34;;;-144.14;100.00
7075;BME280;3578;51.568;6.932;2023-02-11T10:51:21;50930.13;;;-144.14;100.00
7075;BME280;3578;51.568;6.932;2023-02-11T10:53:57;50970.19;;;-144.14;100.00
7075;BME280;3578;51.568;6.932;2023-02-11T10:56:43;51014.25;;;-144.14;100.00
7075;BME280;3578;51.568;6.932;2023-02-11T10:59:18;50978.19;;;-144.14;100.00
7075;BME280;3578;51.568;6.932;2023-02-11T11:01:51;50996.22;;;-144.14;100.00
7075;BME280;3578;51.568;6.932;2023-02-11T11:04:34;50924.13;;;-144.14;100.00
7075;BME280;3578;51.568;6.932;2023-02-11T11:07:18;50898.09;;;-144.14;100.00
7075;BME280;3578;51.568;6.932;2023-02-11T11:09:50;50862.03;;;-144.14;100.00
7075;BME280;3578;51.568;6.932;2023-02-11T11:12:27;50868.03;;;-144.14;100.00
7075;BME280;3578;51.568;6.932;2023-02-11T11:14:57;50874.06;;;-144.14;100.00
7075;BME280;3578;51.568;6.932;2023-02-11T11:17:25;50914.09;;;-144.14;100.00
7075;BME280;3578;51.568;6.932;2023-02-11T11:22:39;50884.06;;;-144.14;100.00
7075;BME280;3578;51.568;6.932;2023-02-11T11:25:24;50807.97;;;-144.14;100.00
7075;BME280;3578;51.568;6.932;2023-02-11T11:27:56;50821.97;;;-144.14;100.00
7075;BME280;3578;51.568;6.932;2023-02-11T11:30:32;50749.88;;;-144.14;100.00
7075;BME280;3578;51.568;6.932;2023-02-11T11:33:00;50735.88;;;-144.14;100.00
7075;BME280;3578;51.568;6.932;2023-02-11T11:35:29;50729.88;;;-144.14;100.00
7075;BME280;3578;51.568;6.932;2023-02-11T11:38:01;50713.84;;;-144.14;100.00
7075;BME280;3578;51.568;6.932;2023-02-11T11:40:31;50653.75;;;-144.14;100.00
7075;BME280;3578;51.568;6.932;2023-02-11T11:43:15;50681.81;;;-144.14;100.00
7075;BME280;3578;51.568;6.932;2023-02-11T11:45:55;50709.84;;;-144.14;100.00
7075;BME280;3578;51.568;6.932;2023-02-11T11:48:25;50681.81;;;-144.14;100.00
7075;BME280;3578;51.568;6.932;2023-02-11T11:50:57;50605.69;;;-144.14;100.00
7075;BME280;3578;51.568;6.932;2023-02-11T11:53:34;50593.69;;;-144.14;100.00
7075;BME280;3578;51.568;6.932;2023-02-11T11:56:05;50649.75;;;-144.14;100.00
7075;BME280;3578;51.568;6.932;2023-02-11T11:58:35;50655.75;;;-144.14;100.00
7075;BME280;3578;51.568;6.932;2023-02-11T12:01:16;50751.88;;;-144.14;100.00
7075;BME280;3578;51.568;6.932;2023-02-11T12:04:28;50755.91;;;-144.14;100.00
7075;BME280;3578;51.568;6.932;2023-02-11T12:07:15;50635.75;;;-144.14;100.00
7075;BME280;3578;51.568;6.932;2023-02-11T12:09:57;50567.66;;;-144.14;100.00
7075;BME280;3578;51.568;6.932;2023-02-11T12:12:40;50547.63;;;-144.14;100.00
7075;BME280;3578;51.568;6.932;2023-02-11T12:15:26;50445.50;;;-144.14;100.00
7075;BME280;3578;51.568;6.932;2023-02-11T12:18:16;50451.50;;;-144.14;100.00
7075;BME280;3578;51.568;6.932;2023-02-11T12:21:08;50453.50;;;-144.14;100.00
7075;BME280;3578;51.568;6.932;2023-02-11T12:23:54;50429.47;;;-144.14;100.00
7075;BME280;3578;51.568;6.932;2023-02-11T12:26:31;50501.56;;;-144.14;100.00
7075;BME280;3578;51.568;6.932;2023-02-11T12:29:07;50521.59;;;-144.14;100.00
7075;BME280;3578;51.568;6.932;2023-02-11T12:31:52;50577.66;;;-144.14;100.00
7075;BME280;3578;51.568;6.932;2023-02-11T12:37:34;50569.66;;;-144.14;100.00
7075;BME280;3578;51.568;6.932;2023-02-11T12:40:14;50551.63;;;-144.14;100.00
7075;BME280;3578;51.568;6.932;2023-02-11T12:42:55;50543.63;;;-144.14;100.00
7075;BME280;3578;51.568;6.932;2023-02-11T12:45:56;50521.59;;;-144.14;100.00
7075;BME280;3578;51.568;6.932;2023-02-11T12:49:07;50599.69;;;-144.14;100.00
7075;BME280;3578;51.568;6.932;2023-02-11T12:51:50;50671.78;;;-144.14;100.00
7075;BME280;3578;51.568;6.932;2023-02-11T12:54:28;50637.75;;;-144.14;100.00
7075;BME280;3578;51.568;6.932;2023-02-11T12:57:00;50603.69;;;-144.14;100.00
7075;BME280;3578;51.568;6.932;2023-02-11T12:59:50;50625.72;;;-144.14;100.00
7075;BME280;3578;51.568;6.932;2023-02-11T13:02:28;50709.84;;;-144.14;100.00
7075;BME280;3578;51.568;6.932;2023-02-11T13:05:04;50755.91;;;-144.14;100.00
7075;BME280;3578;51.568;6.932;2023-02-11T13:07:38;50753.88;;;-144.14;100.00
7075;BME280;3578;51.568;6.932;2023-02-11T13:10:23;50842.00;;;-144.14;100.00
7075;BME280;3578;51.568;6.932;2023-02-11T13:12:52;50842.00;;;-144.14;100.00
7075;BME280;3578;51.568;6.932;2023-02-11T13:15:40;50817.97;;;-144.14;100.00
7075;BME280;3578;51.568;6.932;2023-02-11T13:18:23;50801.97;;;-144.14;100.00
7075;BME280;3578;51.568;6.932;2023-02-11T13:20:58;50832.00;;;-144.14;100.00
7075;BME280;3578;51.568;6.932;2023-02-11T13:23:34;50890.06;;;-144.14;100.00
7075;BME280;3578;51.568;6.932;2023-02-11T13:26:11;50791.94;;;-144.14;100.00